sensor_id;sensor_type;location;lat;lon;timestamp;temperature;humidity
68648;SHT31;55632;51.962;16.116;2024-03-08T00:00:37;-0.54;79.83
68648;SHT31;55632;51.962;16.116;2024-03-08T00:05:38;-0.58;79.93
68648;SHT31;55632;51.962;16.116;2024-03-08T00:10:39;-0.64;80.29
68648;SHT31;55632;51.962;16.116;2024-03-08T00:15:40;-0.57;80.29
68648;SHT31;55632;51.962;16.116;2024-03-08T00:20:42;-0.58;80.31
68648;SHT31;55632;51.962;16.116;2024-03-08T00:25:42;-0.57;80.49
68648;SHT31;55632;51.962;16.116;2024-03-08T00:30:43;-0.55;80.40
68648;SHT31;55632;51.962;16.116;2024-03-08T00:35:44;-0.55;80.58
68648;SHT31;55632;51.962;16.116;2024-03-08T00:40:45;-0.52;80.50
68648;SHT31;55632;51.962;16.116;2024-03-08T00:45:46;-0.54;80.43
68648;SHT31;55632;51.962;16.116;2024-03-08T00:50:46;-0.54;80.41
68648;SHT31;55632;51.962;16.116;2024-03-08T00:55:47;-0.58;80.29
68648;SHT31;55632;51.962;16.116;2024-03-08T01:00:48;-0.58;80.27
68648;SHT31;55632;51.962;16.116;2024-03-08T01:05:49;-0.58;80.27
68648;SHT31;55632;51.962;16.116;2024-03-08T01:10:50;-0.58;80.21
68648;SHT31;55632;51.962;16.116;2024-03-08T01:15:51;-0.58;80.13
68648;SHT31;55632;51.962;16.116;2024-03-08T01:20:51;-0.61;80.10
68648;SHT31;55632;51.962;16.116;2024-03-08T01:25:52;-0.59;80.00
68648;SHT31;55632;51.962;16.116;2024-03-08T01:30:57;-0.62;80.03
68648;SHT31;55632;51.962;16.116;2024-03-08T01:35:58;-0.64;79.94
68648;SHT31;55632;51.962;16.116;2024-03-08T01:40:58;-0.65;79.78
68648;SHT31;55632;51.962;16.116;2024-03-08T01:45:59;-0.69;79.82
68648;SHT31;55632;51.962;16.116;2024-03-08T01:51:00;-0.76;79.93
68648;SHT31;55632;51.962;16.116;2024-03-08T01:56:01;-0.75;80.06
68648;SHT31;55632;51.962;16.116;2024-03-08T02:01:03;-0.75;80.02
68648;SHT31;55632;51.962;16.116;2024-03-08T02:06:04;-0.80;80.03
68648;SHT31;55632;51.962;16.116;2024-03-08T02:11:05;-0.85;80.31
68648;SHT31;55632;51.962;16.116;2024-03-08T02:16:06;-0.80;80.45
68648;SHT31;55632;51.962;16.116;2024-03-08T02:21:08;-0.80;80.34
68648;SHT31;55632;51.962;16.116;2024-03-08T02:26:09;-0.82;80.28
68648;SHT31;55632;51.962;16.116;2024-03-08T02:31:10;-0.80;80.22
68648;SHT31;55632;51.962;16.116;2024-03-08T02:36:11;-0.83;80.11
68648;SHT31;55632;51.962;16.116;2024-03-08T02:41:12;-0.92;80.30
68648;SHT31;55632;51.962;16.116;2024-03-08T02:46:13;-0.93;80.37
68648;SHT31;55632;51.962;16.116;2024-03-08T02:51:14;-0.93;80.29
68648;SHT31;55632;51.962;16.116;2024-03-08T02:56:16;-0.94;80.32
68648;SHT31;55632;51.962;16.116;2024-03-08T03:01:17;-0.96;80.23
68648;SHT31;55632;51.962;16.116;2024-03-08T03:06:20;-0.96;80.16
68648;SHT31;55632;51.962;16.116;2024-03-08T03:11:21;-1.01;80.02
68648;SHT31;55632;51.962;16.116;2024-03-08T03:16:22;-1.05;80.03
68648;SHT31;55632;51.962;16.116;2024-03-08T03:21:23;-1.14;80.10
68648;SHT31;55632;51.962;16.116;2024-03-08T03:26:24;-1.18;80.40
68648;SHT31;55632;51.962;16.116;2024-03-08T03:31:24;-1.20;80.39
68648;SHT31;55632;51.962;16.116;2024-03-08T03:36:25;-1.20;80.27
68648;SHT31;55632;51.962;16.116;2024-03-08T03:41:28;-1.20;80.48
68648;SHT31;55632;51.962;16.116;2024-03-08T03:46:29;-1.22;80.60
68648;SHT31;55632;51.962;16.116;2024-03-08T03:51:30;-1.17;80.70
68648;SHT31;55632;51.962;16.116;2024-03-08T03:56:30;-1.18;80.82
68648;SHT31;55632;51.962;16.116;2024-03-08T04:01:32;-1.21;80.71
68648;SHT31;55632;51.962;16.116;2024-03-08T04:06:33;-1.21;80.83
68648;SHT31;55632;51.962;16.116;2024-03-08T04:11:34;-1.24;80.97
68648;SHT31;55632;51.962;16.116;2024-03-08T04:16:34;-1.25;80.97
68648;SHT31;55632;51.962;16.116;2024-03-08T04:21:35;-1.30;80.89
68648;SHT31;55632;51.962;16.116;2024-03-08T04:26:36;-1.31;80.86
68648;SHT31;55632;51.962;16.116;2024-03-08T04:31:36;-1.35;80.95
68648;SHT31;55632;51.962;16.116;2024-03-08T04:36:38;-1.34;80.85
68648;SHT31;55632;51.962;16.116;2024-03-08T04:41:39;-1.38;80.88
68648;SHT31;55632;51.962;16.116;2024-03-08T04:46:40;-1.39;80.81
68648;SHT31;55632;51.962;16.116;2024-03-08T04:51:41;-1.49;80.72
68648;SHT31;55632;51.962;16.116;2024-03-08T04:56:41;-1.56;81.00
68648;SHT31;55632;51.962;16.116;2024-03-08T05:01:42;-1.58;80.96
68648;SHT31;55632;51.962;16.116;2024-03-08T05:06:43;-1.60;80.94
68648;SHT31;55632;51.962;16.116;2024-03-08T05:11:44;-1.62;81.13
68648;SHT31;55632;51.962;16.116;2024-03-08T05:16:46;-1.60;81.14
68648;SHT31;55632;51.962;16.116;2024-03-08T05:21:49;-1.63;81.40
68648;SHT31;55632;51.962;16.116;2024-03-08T05:26:50;-1.60;81.67
68648;SHT31;55632;51.962;16.116;2024-03-08T05:31:51;-1.59;81.31
68648;SHT31;55632;51.962;16.116;2024-03-08T05:36:52;-1.59;81.37
68648;SHT31;55632;51.962;16.116;2024-03-08T05:41:55;-1.58;81.49
68648;SHT31;55632;51.962;16.116;2024-03-08T05:46:56;-1.52;81.66
68648;SHT31;55632;51.962;16.116;2024-03-08T05:51:57;-1.46;81.63
68648;SHT31;55632;51.962;16.116;2024-03-08T05:56:58;-1.38;81.52
68648;SHT31;55632;51.962;16.116;2024-03-08T06:01:59;-1.34;81.53
68648;SHT31;55632;51.962;16.116;2024-03-08T06:06:59;-1.22;81.56
68648;SHT31;55632;51.962;16.116;2024-03-08T06:12:00;-1.13;81.57
68648;SHT31;55632;51.962;16.116;2024-03-08T06:17:02;-1.03;81.46
68648;SHT31;55632;51.962;16.116;2024-03-08T06:22:03;-0.97;81.45
68648;SHT31;55632;51.962;16.116;2024-03-08T06:27:06;-0.89;81.58
68648;SHT31;55632;51.962;16.116;2024-03-08T06:32:06;-0.76;81.99
68648;SHT31;55632;51.962;16.116;2024-03-08T06:37:07;-0.62;82.01
68648;SHT31;55632;51.962;16.116;2024-03-08T06:42:07;-0.45;82.01
68648;SHT31;55632;51.962;16.116;2024-03-08T06:47:09;-0.35;81.96
68648;SHT31;55632;51.962;16.116;2024-03-08T06:52:10;-0.25;82.32
68648;SHT31;55632;51.962;16.116;2024-03-08T06:57:11;-0.07;82.27
68648;SHT31;55632;51.962;16.116;2024-03-08T07:02:11;0.07;82.32
68648;SHT31;55632;51.962;16.116;2024-03-08T07:07:12;0.22;82.32
68648;SHT31;55632;51.962;16.116;2024-03-08T07:12:12;0.35;82.43
68648;SHT31;55632;51.962;16.116;2024-03-08T07:17:14;0.45;82.29
68648;SHT31;55632;51.962;16.116;2024-03-08T07:22:14;0.59;82.36
68648;SHT31;55632;51.962;16.116;2024-03-08T07:27:16;0.69;82.46
68648;SHT31;55632;51.962;16.116;2024-03-08T07:32:16;0.80;82.40
68648;SHT31;55632;51.962;16.116;2024-03-08T07:37:24;0.90;82.42
68648;SHT31;55632;51.962;16.116;2024-03-08T07:42:26;1.05;82.53
68648;SHT31;55632;51.962;16.116;2024-03-08T07:47:26;1.18;82.45
68648;SHT31;55632;51.962;16.116;2024-03-08T07:52:27;1.26;82.05
68648;SHT31;55632;51.962;16.116;2024-03-08T07:57:28;1.38;81.40
68648;SHT31;55632;51.962;16.116;2024-03-08T08:02:30;1.47;81.43
68648;SHT31;55632;51.962;16.116;2024-03-08T08:07:31;1.54;81.10
68648;SHT31;55632;51.962;16.116;2024-03-08T08:12:31;1.70;81.15
68648;SHT31;55632;51.962;16.116;2024-03-08T08:17:34;1.82;81.05
68648;SHT31;55632;51.962;16.116;2024-03-08T08:22:35;1.89;80.41
68648;SHT31;55632;51.962;16.116;2024-03-08T08:27:36;1.99;79.44
68648;SHT31;55632;51.962;16.116;2024-03-08T08:32:37;2.05;78.80
68648;SHT31;55632;51.962;16.116;2024-03-08T08:37:41;2.19;78.66
68648;SHT31;55632;51.962;16.116;2024-03-08T08:42:41;2.29;77.98
68648;SHT31;55632;51.962;16.116;2024-03-08T08:47:42;2.33;77.18
68648;SHT31;55632;51.962;16.116;2024-03-08T08:52:43;2.39;76.77
68648;SHT31;55632;51.962;16.116;2024-03-08T08:57:44;2.47;76.39
68648;SHT31;55632;51.962;16.116;2024-03-08T09:02:45;2.56;76.18
68648;SHT31;55632;51.962;16.116;2024-03-08T09:07:45;2.61;76.28
68648;SHT31;55632;51.962;16.116;2024-03-08T09:12:46;2.68;75.46
68648;SHT31;55632;51.962;16.116;2024-03-08T09:17:47;2.74;75.20
68648;SHT31;55632;51.962;16.116;2024-03-08T09:22:48;2.80;75.17
68648;SHT31;55632;51.962;16.116;2024-03-08T09:27:49;2.85;75.12
68648;SHT31;55632;51.962;16.116;2024-03-08T09:32:50;2.95;75.29
68648;SHT31;55632;51.962;16.116;2024-03-08T09:37:51;3.00;75.26
68648;SHT31;55632;51.962;16.116;2024-03-08T09:42:53;3.10;75.51
68648;SHT31;55632;51.962;16.116;2024-03-08T09:47:55;3.16;74.96
68648;SHT31;55632;51.962;16.116;2024-03-08T09:52:56;3.22;74.63
68648;SHT31;55632;51.962;16.116;2024-03-08T09:58:02;3.23;74.90
68648;SHT31;55632;51.962;16.116;2024-03-08T10:03:24;3.30;74.67
68648;SHT31;55632;51.962;16.116;2024-03-08T10:08:27;3.34;74.11
68648;SHT31;55632;51.962;16.116;2024-03-08T10:13:32;3.34;74.07
68648;SHT31;55632;51.962;16.116;2024-03-08T10:18:33;3.41;73.95
68648;SHT31;55632;51.962;16.116;2024-03-08T10:23:34;3.44;73.74
68648;SHT31;55632;51.962;16.116;2024-03-08T10:28:36;3.60;73.34
68648;SHT31;55632;51.962;16.116;2024-03-08T10:33:37;3.62;73.64
68648;SHT31;55632;51.962;16.116;2024-03-08T10:38:43;3.68;73.40
68648;SHT31;55632;51.962;16.116;2024-03-08T10:49:31;3.85;72.81
68648;SHT31;55632;51.962;16.116;2024-03-08T10:54:37;3.89;72.55
68648;SHT31;55632;51.962;16.116;2024-03-08T10:59:41;3.97;72.10
68648;SHT31;55632;51.962;16.116;2024-03-08T11:04:50;4.03;71.70
68648;SHT31;55632;51.962;16.116;2024-03-08T11:09:51;4.10;71.78
68648;SHT31;55632;51.962;16.116;2024-03-08T11:14:52;4.17;71.06
68648;SHT31;55632;51.962;16.116;2024-03-08T11:19:58;4.25;70.74
68648;SHT31;55632;51.962;16.116;2024-03-08T11:25:08;4.33;69.26
68648;SHT31;55632;51.962;16.116;2024-03-08T11:30:21;4.31;68.96
68648;SHT31;55632;51.962;16.116;2024-03-08T11:35:24;4.40;68.78
68648;SHT31;55632;51.962;16.116;2024-03-08T11:40:25;4.44;67.43
68648;SHT31;55632;51.962;16.116;2024-03-08T11:45:26;4.52;66.74
68648;SHT31;55632;51.962;16.116;2024-03-08T11:50:28;4.57;66.48
68648;SHT31;55632;51.962;16.116;2024-03-08T11:55:28;4.66;65.52
68648;SHT31;55632;51.962;16.116;2024-03-08T12:00:30;4.68;65.71
68648;SHT31;55632;51.962;16.116;2024-03-08T12:05:35;4.71;65.73
68648;SHT31;55632;51.962;16.116;2024-03-08T12:10:36;4.80;63.69
68648;SHT31;55632;51.962;16.116;2024-03-08T12:15:39;4.79;64.37
68648;SHT31;55632;51.962;16.116;2024-03-08T12:20:39;4.86;64.14
68648;SHT31;55632;51.962;16.116;2024-03-08T12:25:44;4.92;65.07
68648;SHT31;55632;51.962;16.116;2024-03-08T12:30:46;4.96;65.58
68648;SHT31;55632;51.962;16.116;2024-03-08T12:35:52;5.00;65.49
68648;SHT31;55632;51.962;16.116;2024-03-08T12:41:00;5.07;65.19
68648;SHT31;55632;51.962;16.116;2024-03-08T12:46:01;5.16;64.94
68648;SHT31;55632;51.962;16.116;2024-03-08T12:51:07;5.18;65.22
68648;SHT31;55632;51.962;16.116;2024-03-08T12:56:08;5.27;65.00
68648;SHT31;55632;51.962;16.116;2024-03-08T13:01:09;5.30;64.92
68648;SHT31;55632;51.962;16.116;2024-03-08T13:06:09;5.38;64.82
68648;SHT31;55632;51.962;16.116;2024-03-08T13:11:10;5.42;64.37
68648;SHT31;55632;51.962;16.116;2024-03-08T13:16:12;5.48;63.72
68648;SHT31;55632;51.962;16.116;2024-03-08T13:21:17;5.55;63.37
68648;SHT31;55632;51.962;16.116;2024-03-08T13:26:20;5.58;63.29
68648;SHT31;55632;51.962;16.116;2024-03-08T13:31:22;5.66;63.44
68648;SHT31;55632;51.962;16.116;2024-03-08T13:36:27;5.67;63.26
68648;SHT31;55632;51.962;16.116;2024-03-08T13:41:48;5.76;63.21
68648;SHT31;55632;51.962;16.116;2024-03-08T13:46:58;5.76;63.05
68648;SHT31;55632;51.962;16.116;2024-03-08T13:51:59;5.83;62.60
68648;SHT31;55632;51.962;16.116;2024-03-08T13:57:00;5.90;62.05
68648;SHT31;55632;51.962;16.116;2024-03-08T14:02:04;5.91;61.96
68648;SHT31;55632;51.962;16.116;2024-03-08T14:07:05;5.96;61.82
68648;SHT31;55632;51.962;16.116;2024-03-08T14:12:09;5.97;62.04
68648;SHT31;55632;51.962;16.116;2024-03-08T14:17:10;6.01;61.68
68648;SHT31;55632;51.962;16.116;2024-03-08T14:22:11;6.01;61.54
68648;SHT31;55632;51.962;16.116;2024-03-08T14:27:15;6.03;61.75
68648;SHT31;55632;51.962;16.116;2024-03-08T14:32:19;6.06;61.01
68648;SHT31;55632;51.962;16.116;2024-03-08T14:37:23;6.10;61.13
68648;SHT31;55632;51.962;16.116;2024-03-08T14:42:28;6.13;60.67
68648;SHT31;55632;51.962;16.116;2024-03-08T14:47:30;6.17;60.34
68648;SHT31;55632;51.962;16.116;2024-03-08T14:52:31;6.18;60.47
68648;SHT31;55632;51.962;16.116;2024-03-08T14:57:32;6.21;60.75
68648;SHT31;55632;51.962;16.116;2024-03-08T15:02:34;6.22;60.83
68648;SHT31;55632;51.962;16.116;2024-03-08T15:07:40;6.24;60.19
68648;SHT31;55632;51.962;16.116;2024-03-08T15:12:41;6.29;59.66
68648;SHT31;55632;51.962;16.116;2024-03-08T15:17:44;6.32;59.53
68648;SHT31;55632;51.962;16.116;2024-03-08T15:22:47;6.38;59.44
68648;SHT31;55632;51.962;16.116;2024-03-08T15:27:48;6.39;59.13
68648;SHT31;55632;51.962;16.116;2024-03-08T15:32:49;6.45;59.24
68648;SHT31;55632;51.962;16.116;2024-03-08T15:38:01;6.45;59.33
68648;SHT31;55632;51.962;16.116;2024-03-08T15:43:02;6.46;59.21
68648;SHT31;55632;51.962;16.116;2024-03-08T15:48:03;6.45;59.50
68648;SHT31;55632;51.962;16.116;2024-03-08T15:53:05;6.45;59.60
68648;SHT31;55632;51.962;16.116;2024-03-08T15:58:07;6.43;59.68
68648;SHT31;55632;51.962;16.116;2024-03-08T16:03:08;6.39;59.89
68648;SHT31;55632;51.962;16.116;2024-03-08T16:08:15;6.34;60.22
68648;SHT31;55632;51.962;16.116;2024-03-08T16:13:17;6.28;60.43
68648;SHT31;55632;51.962;16.116;2024-03-08T16:18:19;6.18;60.69
68648;SHT31;55632;51.962;16.116;2024-03-08T16:23:25;6.11;60.94
68648;SHT31;55632;51.962;16.116;2024-03-08T16:28:26;6.01;61.27
68648;SHT31;55632;51.962;16.116;2024-03-08T16:33:28;5.90;61.61
68648;SHT31;55632;51.962;16.116;2024-03-08T16:38:29;5.77;61.93
68648;SHT31;55632;51.962;16.116;2024-03-08T16:43:30;5.67;62.16
68648;SHT31;55632;51.962;16.116;2024-03-08T16:48:32;5.58;62.44
68648;SHT31;55632;51.962;16.116;2024-03-08T16:53:34;5.48;62.71
68648;SHT31;55632;51.962;16.116;2024-03-08T16:58:40;5.38;63.05
68648;SHT31;55632;51.962;16.116;2024-03-08T17:03:42;5.27;63.38
68648;SHT31;55632;51.962;16.116;2024-03-08T17:08:46;5.16;63.72
68648;SHT31;55632;51.962;16.116;2024-03-08T17:13:47;5.00;64.08
68648;SHT31;55632;51.962;16.116;2024-03-08T17:18:48;4.85;64.44
68648;SHT31;55632;51.962;16.116;2024-03-08T17:23:49;4.73;64.94
68648;SHT31;55632;51.962;16.116;2024-03-08T17:28:50;4.64;65.37
68648;SHT31;55632;51.962;16.116;2024-03-08T17:33:50;4.47;65.84
68648;SHT31;55632;51.962;16.116;2024-03-08T17:38:51;4.41;66.23
68648;SHT31;55632;51.962;16.116;2024-03-08T17:43:53;4.27;66.66
68648;SHT31;55632;51.962;16.116;2024-03-08T17:48:54;4.18;67.05
68648;SHT31;55632;51.962;16.116;2024-03-08T17:53:55;4.11;67.43
68648;SHT31;55632;51.962;16.116;2024-03-08T17:58:56;4.02;67.87
68648;SHT31;55632;51.962;16.116;2024-03-08T18:03:56;3.92;68.10
68648;SHT31;55632;51.962;16.116;2024-03-08T18:08:57;3.86;68.51
68648;SHT31;55632;51.962;16.116;2024-03-08T18:13:58;3.81;68.68
68648;SHT31;55632;51.962;16.116;2024-03-08T18:19:01;3.75;69.07
68648;SHT31;55632;51.962;16.116;2024-03-08T18:24:07;3.75;69.39
68648;SHT31;55632;51.962;16.116;2024-03-08T18:29:08;3.71;69.63
68648;SHT31;55632;51.962;16.116;2024-03-08T18:34:09;3.69;69.86
68648;SHT31;55632;51.962;16.116;2024-03-08T18:39:10;3.67;70.19
68648;SHT31;55632;51.962;16.116;2024-03-08T18:44:16;3.64;70.18
68648;SHT31;55632;51.962;16.116;2024-03-08T18:49:18;3.64;70.39
68648;SHT31;55632;51.962;16.116;2024-03-08T18:54:19;3.57;70.63
68648;SHT31;55632;51.962;16.116;2024-03-08T18:59:20;3.54;70.70
68648;SHT31;55632;51.962;16.116;2024-03-08T19:04:20;3.48;70.93
68648;SHT31;55632;51.962;16.116;2024-03-08T19:09:26;3.40;71.09
68648;SHT31;55632;51.962;16.116;2024-03-08T19:14:28;3.40;71.23
68648;SHT31;55632;51.962;16.116;2024-03-08T19:19:28;3.33;71.49
68648;SHT31;55632;51.962;16.116;2024-03-08T19:24:29;3.31;71.58
68648;SHT31;55632;51.962;16.116;2024-03-08T19:29:30;3.23;71.78
68648;SHT31;55632;51.962;16.116;2024-03-08T19:34:31;3.19;71.81
68648;SHT31;55632;51.962;16.116;2024-03-08T19:39:31;3.12;72.05
68648;SHT31;55632;51.962;16.116;2024-03-08T19:44:32;3.05;72.11
68648;SHT31;55632;51.962;16.116;2024-03-08T19:49:34;3.00;72.26
68648;SHT31;55632;51.962;16.116;2024-03-08T19:54:34;2.93;72.50
68648;SHT31;55632;51.962;16.116;2024-03-08T19:59:35;2.89;72.53
68648;SHT31;55632;51.962;16.116;2024-03-08T20:04:45;2.81;72.74
68648;SHT31;55632;51.962;16.116;2024-03-08T20:09:47;2.78;72.87
68648;SHT31;55632;51.962;16.116;2024-03-08T20:14:47;2.70;73.07
68648;SHT31;55632;51.962;16.116;2024-03-08T20:19:49;2.65;73.12
68648;SHT31;55632;51.962;16.116;2024-03-08T20:24:50;2.61;73.33
68648;SHT31;55632;51.962;16.116;2024-03-08T20:29:51;2.57;73.39
68648;SHT31;55632;51.962;16.116;2024-03-08T20:34:53;2.50;73.55
68648;SHT31;55632;51.962;16.116;2024-03-08T20:39:55;2.48;73.68
68648;SHT31;55632;51.962;16.116;2024-03-08T20:44:55;2.43;73.89
68648;SHT31;55632;51.962;16.116;2024-03-08T20:49:56;2.37;73.91
68648;SHT31;55632;51.962;16.116;2024-03-08T20:54:58;2.32;74.10
68648;SHT31;55632;51.962;16.116;2024-03-08T20:59:59;2.29;74.33
68648;SHT31;55632;51.962;16.116;2024-03-08T21:05:00;2.25;74.39
68648;SHT31;55632;51.962;16.116;2024-03-08T21:10:03;2.20;74.54
68648;SHT31;55632;51.962;16.116;2024-03-08T21:15:10;2.19;74.70
68648;SHT31;55632;51.962;16.116;2024-03-08T21:20:13;2.18;74.80
68648;SHT31;55632;51.962;16.116;2024-03-08T21:25:18;2.16;74.99
68648;SHT31;55632;51.962;16.116;2024-03-08T21:30:19;2.15;75.00
68648;SHT31;55632;51.962;16.116;2024-03-08T21:35:23;2.12;75.15
68648;SHT31;55632;51.962;16.116;2024-03-08T21:40:23;2.12;75.35
68648;SHT31;55632;51.962;16.116;2024-03-08T21:45:26;2.12;75.23
68648;SHT31;55632;51.962;16.116;2024-03-08T21:50:31;2.09;75.23
68648;SHT31;55632;51.962;16.116;2024-03-08T21:55:33;2.01;75.30
68648;SHT31;55632;51.962;16.116;2024-03-08T22:00:35;2.04;75.31
68648;SHT31;55632;51.962;16.116;2024-03-08T22:05:37;1.99;75.37
68648;SHT31;55632;51.962;16.116;2024-03-08T22:10:37;1.94;75.50
68648;SHT31;55632;51.962;16.116;2024-03-08T22:15:38;1.91;75.48
68648;SHT31;55632;51.962;16.116;2024-03-08T22:20:39;1.89;75.54
68648;SHT31;55632;51.962;16.116;2024-03-08T22:25:40;1.84;75.56
68648;SHT31;55632;51.962;16.116;2024-03-08T22:30:42;1.81;75.63
68648;SHT31;55632;51.962;16.116;2024-03-08T22:35:45;1.77;75.76
68648;SHT31;55632;51.962;16.116;2024-03-08T22:40:47;1.74;75.78
68648;SHT31;55632;51.962;16.116;2024-03-08T22:45:48;1.73;75.86
68648;SHT31;55632;51.962;16.116;2024-03-08T22:50:49;1.67;75.86
68648;SHT31;55632;51.962;16.116;2024-03-08T22:55:50;1.68;75.98
68648;SHT31;55632;51.962;16.116;2024-03-08T23:00:52;1.66;75.99
68648;SHT31;55632;51.962;16.116;2024-03-08T23:06:03;1.61;76.06
68648;SHT31;55632;51.962;16.116;2024-03-08T23:11:04;1.59;76.17
68648;SHT31;55632;51.962;16.116;2024-03-08T23:16:12;1.51;76.25
68648;SHT31;55632;51.962;16.116;2024-03-08T23:21:13;1.50;76.39
68648;SHT31;55632;51.962;16.116;2024-03-08T23:26:14;1.46;76.45
68648;SHT31;55632;51.962;16.116;2024-03-08T23:31:15;1.42;76.59
68648;SHT31;55632;51.962;16.116;2024-03-08T23:36:16;1.39;76.78
68648;SHT31;55632;51.962;16.116;2024-03-08T23:41:17;1.36;76.76
68648;SHT31;55632;51.962;16.116;2024-03-08T23:46:18;1.32;76.97
68648;SHT31;55632;51.962;16.116;2024-03-08T23:51:19;1.35;76.93
68648;SHT31;55632;51.962;16.116;2024-03-08T23:56:20;1.33;77.22
